createdAt,value
2019-05-23T00:01:53.613Z,95660.52
2019-05-23T00:04:43.984Z,95658.50
2019-05-23T00:07:33.075Z,95661.63
2019-05-23T00:10:22.924Z,95659.41
2019-05-23T00:13:02.294Z,95665.12
2019-05-23T00:15:38.647Z,95660.31
2019-05-23T00:18:10.541Z,95659.91
2019-05-23T00:20:41.601Z,95656.88
2019-05-23T00:23:13.230Z,95662.91
2019-05-23T00:25:44.118Z,95657.33
2019-05-23T00:28:15.540Z,95644.88
2019-05-23T00:30:56.482Z,95647.98
2019-05-23T00:33:28.162Z,95645.70
2019-05-23T00:35:59.327Z,95648.75
2019-05-23T00:38:31.616Z,95648.16
2019-05-23T00:41:03.114Z,95649.31
2019-05-23T00:43:34.034Z,95645.22
2019-05-23T00:46:04.953Z,95641.30
2019-05-23T00:48:36.661Z,95646.77
2019-05-23T00:51:07.277Z,95654.58
2019-05-23T00:53:38.788Z,95656.22
2019-05-23T00:56:09.791Z,95646.33
2019-05-23T00:58:41.052Z,95646.71
2019-05-23T01:01:13.485Z,95649.06
2019-05-23T01:03:43.518Z,95651.25
2019-05-23T01:06:15.944Z,95646.23
2019-05-23T01:08:47.032Z,95648.22
2019-05-23T01:11:17.588Z,95653.81
2019-05-23T01:13:48.244Z,95651.41
2019-05-23T01:16:22.155Z,95649.69
2019-05-23T01:18:53.596Z,95648.17
2019-05-23T01:21:42.578Z,95644.40
2019-05-23T01:24:23.015Z,95640.59
2019-05-23T01:26:53.404Z,95640.80
2019-05-23T01:29:25.633Z,95643.83
2019-05-23T01:32:03.383Z,95643.56
2019-05-23T01:34:34.249Z,95641.06
2019-05-23T01:37:05.167Z,95645.41
2019-05-23T01:39:36.324Z,95642.38
2019-05-23T01:42:07.423Z,95641.84
2019-05-23T01:44:37.560Z,95637.92
2019-05-23T01:47:09.155Z,95640.05
2019-05-23T01:49:40.917Z,95644.66
2019-05-23T01:52:12.056Z,95645.48
2019-05-23T01:54:42.612Z,95649.15
2019-05-23T01:57:12.866Z,95651.41
2019-05-23T01:59:42.916Z,95650.63
2019-05-23T02:02:14.219Z,95645.85
2019-05-23T02:04:45.579Z,95645.34
2019-05-23T02:07:16.643Z,95641.09
2019-05-23T02:09:46.737Z,95644.45
2019-05-23T02:12:18.156Z,95644.30
2019-05-23T02:14:50.011Z,95645.29
2019-05-23T02:17:21.596Z,95644.24
2019-05-23T02:19:52.047Z,95641.30
2019-05-23T02:22:22.729Z,95640.33
2019-05-23T02:24:53.133Z,95640.95
2019-05-23T02:27:23.307Z,95645.70
2019-05-23T02:29:55.469Z,95636.20
2019-05-23T02:32:26.428Z,95639.17
2019-05-23T02:34:57.925Z,95640.89
2019-05-23T02:37:32.380Z,95637.30
2019-05-23T02:40:13.929Z,95636.22
2019-05-23T02:42:52.237Z,95638.78
2019-05-23T02:45:26.063Z,95643.05
2019-05-23T02:47:58.564Z,95643.25
2019-05-23T02:50:51.190Z,95648.17
2019-05-23T02:53:25.637Z,95642.15
2019-05-23T02:55:58.674Z,95644.14
2019-05-23T02:58:44.064Z,95630.86
2019-05-23T03:01:36.886Z,95631.17
2019-05-23T03:04:12.198Z,95638.07
2019-05-23T03:06:43.953Z,95633.32
2019-05-23T03:09:17.116Z,95638.55
2019-05-23T03:11:49.077Z,95633.47
2019-05-23T03:14:19.961Z,95640.28
2019-05-23T03:16:52.252Z,95645.78
2019-05-23T03:19:38.484Z,95640.33
2019-05-23T03:22:56.139Z,95636.63
2019-05-23T03:25:39.174Z,95638.29
2019-05-23T03:28:12.841Z,95637.61
2019-05-23T03:33:37.426Z,95635.19
2019-05-23T03:36:08.475Z,95640.20
2019-05-23T03:38:38.628Z,95631.33
2019-05-23T03:41:08.616Z,95637.30
2019-05-23T03:43:39.611Z,95624.17
2019-05-23T03:46:11.258Z,95632.70
2019-05-23T03:48:42.480Z,95635.52
2019-05-23T03:51:13.546Z,95624.44
2019-05-23T03:53:43.563Z,95628.51
2019-05-23T03:56:13.574Z,95633.31
2019-05-23T03:58:45.073Z,95636.62
2019-05-23T04:01:16.511Z,95632.16
2019-05-23T04:03:47.916Z,95637.53
2019-05-23T04:06:18.572Z,95640.83
2019-05-23T04:08:50.048Z,95641.37
2019-05-23T04:11:20.992Z,95644.60
2019-05-23T04:13:51.776Z,95641.37
2019-05-23T04:16:23.133Z,95643.89
2019-05-23T04:18:53.323Z,95640.17
2019-05-23T04:21:24.852Z,95639.50
2019-05-23T04:23:54.833Z,95641.42
2019-05-23T04:26:24.849Z,95642.97
2019-05-23T04:28:54.978Z,95646.53
2019-05-23T04:31:25.156Z,95644.95
2019-05-23T04:33:55.275Z,95640.47
2019-05-23T04:36:25.738Z,95645.10
2019-05-23T04:38:55.760Z,95648.61
2019-05-23T04:41:26.212Z,95654.16
2019-05-23T04:43:56.245Z,95653.06
2019-05-23T04:46:26.212Z,95645.78
2019-05-23T04:48:56.232Z,95656.11
2019-05-23T04:51:27.093Z,95656.27
2019-05-23T04:53:57.115Z,95659.91
2019-05-23T04:56:27.267Z,95657.34
2019-05-23T04:58:57.285Z,95658.11
2019-05-23T05:01:27.273Z,95654.23
2019-05-23T05:03:57.669Z,95656.29
2019-05-23T05:06:27.893Z,95655.63
2019-05-23T05:09:00.618Z,95657.13
2019-05-23T05:11:31.212Z,95661.41
2019-05-23T05:14:01.212Z,95658.88
2019-05-23T05:16:32.467Z,95660.61
2019-05-23T05:19:02.464Z,95660.13
2019-05-23T05:21:33.352Z,95660.17
2019-05-23T05:24:03.561Z,95666.09
2019-05-23T05:26:33.624Z,95661.10
2019-05-23T05:29:03.643Z,95660.46
2019-05-23T05:31:33.641Z,95658.25
2019-05-23T05:34:03.835Z,95657.80
2019-05-23T05:36:33.864Z,95654.94
2019-05-23T05:39:05.956Z,95659.14
2019-05-23T05:41:36.823Z,95662.78
2019-05-23T05:44:07.417Z,95665.14
2019-05-23T05:46:37.408Z,95666.64
2019-05-23T05:49:08.470Z,95668.16
2019-05-23T05:51:38.980Z,95665.32
2019-05-23T05:54:10.212Z,95664.41
2019-05-23T05:56:41.460Z,95669.43
2019-05-23T05:59:11.517Z,95667.80
2019-05-23T06:01:41.850Z,95669.17
2019-05-23T06:04:12.743Z,95668.41
2019-05-23T06:06:44.381Z,95672.09
2019-05-23T06:12:08.781Z,95669.97
2019-05-23T06:14:39.220Z,95671.95
2019-05-23T06:17:10.953Z,95671.50
2019-05-23T06:19:41.720Z,95670.42
2019-05-23T06:22:12.312Z,95662.58
2019-05-23T06:24:49.116Z,95659.20
2019-05-23T06:27:19.236Z,95662.87
2019-05-23T06:29:49.379Z,95662.41
2019-05-23T06:32:21.040Z,95664.90
2019-05-23T06:34:52.471Z,95664.23
2019-05-23T06:37:24.105Z,95663.13
2019-05-23T06:39:54.065Z,95662.80
2019-05-23T06:42:24.094Z,95661.72
2019-05-23T06:44:55.348Z,95662.80
2019-05-23T06:47:25.374Z,95673.41
2019-05-23T06:49:55.371Z,95667.34
2019-05-23T06:52:25.478Z,95670.80
2019-05-23T06:54:59.451Z,95668.50
2019-05-23T06:57:27.386Z,95668.33
2019-05-23T06:59:57.478Z,95666.51
2019-05-23T07:02:31.539Z,95666.83
2019-05-23T07:04:59.591Z,95668.47
2019-05-23T07:07:31.613Z,95671.72
2019-05-23T07:10:02.619Z,95673.25
2019-05-23T07:12:32.780Z,95676.56
2019-05-23T07:15:05.677Z,95679.20
2019-05-23T07:17:38.227Z,95682.17
2019-05-23T07:20:10.441Z,95681.38
2019-05-23T07:22:41.727Z,95673.12
2019-05-23T07:25:11.988Z,95673.28
2019-05-23T07:27:42.371Z,95672.45
2019-05-23T07:30:17.917Z,95675.44
2019-05-23T07:32:47.939Z,95675.74
2019-05-23T07:35:19.199Z,95673.95
2019-05-23T07:37:49.160Z,95674.43
2019-05-23T07:40:19.357Z,95668.50
2019-05-23T07:42:50.345Z,95670.30
2019-05-23T07:45:34.123Z,95663.72
2019-05-23T07:48:04.622Z,95661.59
2019-05-23T07:50:34.604Z,95667.52
2019-05-23T07:53:06.361Z,95669.34
2019-05-23T07:55:38.065Z,95663.41
2019-05-23T07:58:12.887Z,95660.59
2019-05-23T08:00:49.139Z,95660.27
2019-05-23T08:03:20.160Z,95663.41
2019-05-23T08:05:50.549Z,95656.66
2019-05-23T08:08:20.807Z,95657.30
2019-05-23T08:10:50.802Z,95646.69
2019-05-23T08:13:20.820Z,95645.59
2019-05-23T08:15:51.494Z,95644.84
2019-05-23T08:18:21.884Z,95647.05
2019-05-23T08:20:51.834Z,95636.24
2019-05-23T08:23:21.825Z,95636.14
2019-05-23T08:25:52.145Z,95637.99
2019-05-23T08:28:22.384Z,95638.20
2019-05-23T08:30:52.393Z,95632.77
2019-05-23T08:33:22.386Z,95635.75
2019-05-23T08:35:53.271Z,95636.09
2019-05-23T08:38:24.313Z,95638.78
2019-05-23T08:40:56.326Z,95637.25
2019-05-23T08:43:27.184Z,95639.02
2019-05-23T08:45:58.269Z,95635.60
2019-05-23T08:48:29.154Z,95642.09
2019-05-23T08:50:59.726Z,95635.22
2019-05-23T08:53:30.401Z,95638.88
2019-05-23T08:56:00.963Z,95634.43
2019-05-23T08:58:31.457Z,95635.31
2019-05-23T09:01:02.750Z,95636.80
2019-05-23T09:03:33.178Z,95629.23
2019-05-23T09:06:03.350Z,95634.09
2019-05-23T09:08:34.296Z,95629.11
2019-05-23T09:11:05.082Z,95633.86
2019-05-23T09:13:35.438Z,95629.11
2019-05-23T09:16:05.659Z,95635.93
2019-05-23T09:18:35.921Z,95630.59
2019-05-23T09:21:07.565Z,95632.91
2019-05-23T09:23:37.583Z,95634.17
2019-05-23T09:26:07.640Z,95631.10
2019-05-23T09:28:37.584Z,95628.13
2019-05-23T09:31:08.568Z,95633.11
2019-05-23T09:33:38.899Z,95630.95
2019-05-23T09:36:09.770Z,95635.74
2019-05-23T09:38:40.148Z,95631.30
2019-05-23T09:41:10.871Z,95625.59
2019-05-23T09:43:40.776Z,95624.91
2019-05-23T09:46:11.281Z,95618.25
2019-05-23T09:48:41.373Z,95622.28
2019-05-23T09:51:11.349Z,95624.33
2019-05-23T09:53:47.082Z,95611.50
2019-05-23T09:56:13.358Z,95610.84
2019-05-23T09:58:43.369Z,95612.69
2019-05-23T10:01:14.952Z,95613.02
2019-05-23T10:03:44.998Z,95610.80
2019-05-23T10:06:15.092Z,95606.26
2019-05-23T10:08:45.103Z,95606.29
2019-05-23T10:11:15.695Z,95600.55
2019-05-23T10:13:45.738Z,95604.05
2019-05-23T10:16:15.838Z,95601.42
2019-05-23T10:18:45.887Z,95605.81
2019-05-23T10:21:15.895Z,95607.33
2019-05-23T10:23:45.875Z,95605.22
2019-05-23T10:26:16.060Z,95600.19
2019-05-23T10:28:46.040Z,95600.83
2019-05-23T10:31:17.694Z,95593.52
2019-05-23T10:33:48.211Z,95588.73
2019-05-23T10:36:18.905Z,95585.66
2019-05-23T10:38:48.959Z,95588.36
2019-05-23T10:41:18.982Z,95586.70
2019-05-23T10:43:48.988Z,95582.11
2019-05-23T10:46:19.371Z,95577.20
2019-05-23T10:48:50.378Z,95582.02
2019-05-23T10:51:20.916Z,95574.03
2019-05-23T10:53:51.002Z,95578.98
2019-05-23T10:56:21.849Z,95579.22
2019-05-23T10:58:51.932Z,95570.13
2019-05-23T11:01:21.921Z,95573.14
2019-05-23T11:03:52.382Z,95575.81
2019-05-23T11:06:22.366Z,95574.41
2019-05-23T11:08:52.861Z,95571.47
2019-05-23T11:11:24.820Z,95572.58
2019-05-23T11:13:56.723Z,95569.59
2019-05-23T11:16:26.934Z,95565.11
2019-05-23T11:18:56.991Z,95556.84
2019-05-23T11:21:27.504Z,95555.05
2019-05-23T11:23:57.561Z,95547.68
2019-05-23T11:26:27.563Z,95542.80
2019-05-23T11:28:58.179Z,95548.16
2019-05-23T11:31:28.299Z,95545.81
2019-05-23T11:33:58.374Z,95536.47
2019-05-23T11:36:35.805Z,95533.95
2019-05-23T11:39:00.535Z,95528.66
2019-05-23T11:41:31.212Z,95531.40
2019-05-23T11:44:01.305Z,95538.20
2019-05-23T11:46:32.944Z,95537.83
2019-05-23T11:49:07.866Z,95528.25
2019-05-23T11:51:38.978Z,95528.22
2019-05-23T11:54:10.617Z,95521.86
2019-05-23T11:56:42.747Z,95521.83
2019-05-23T11:59:12.827Z,95524.84
2019-05-23T12:01:44.581Z,95519.96
2019-05-23T12:04:16.500Z,95510.60
2019-05-23T12:09:40.351Z,95511.45
2019-05-23T12:12:10.727Z,95507.90
2019-05-23T12:14:41.499Z,95510.05
2019-05-23T12:17:12.990Z,95505.93
2019-05-23T12:19:42.899Z,95507.94
2019-05-23T12:22:13.841Z,95506.78
2019-05-23T12:24:43.929Z,95503.98
2019-05-23T12:27:14.690Z,95505.39
2019-05-23T12:29:44.735Z,95495.68
2019-05-23T12:32:15.153Z,95489.44
2019-05-23T12:35:08.070Z,95485.19
2019-05-23T12:37:20.171Z,95485.27
2019-05-23T12:39:49.087Z,95478.52
2019-05-23T12:42:19.371Z,95483.00
2019-05-23T12:44:50.594Z,95484.97
2019-05-23T12:47:22.206Z,95486.77
2019-05-23T12:49:53.848Z,95478.59
2019-05-23T12:52:23.820Z,95474.31
2019-05-23T12:54:54.330Z,95477.60
2019-05-23T12:57:24.781Z,95475.53
2019-05-23T12:59:55.850Z,95474.44
2019-05-23T13:02:27.469Z,95470.59
2019-05-23T13:04:59.826Z,95468.95
2019-05-23T13:07:36.192Z,95461.08
2019-05-23T13:10:02.442Z,95470.50
2019-05-23T13:12:32.681Z,95471.50
2019-05-23T13:15:02.838Z,95463.03
2019-05-23T13:17:35.010Z,95463.94
2019-05-23T13:20:09.439Z,95465.80
2019-05-23T13:22:39.948Z,95463.03
2019-05-23T13:25:11.310Z,95467.66
2019-05-23T13:27:45.559Z,95467.95
2019-05-23T13:30:15.829Z,95458.94
2019-05-23T13:32:46.237Z,95462.72
2019-05-23T13:35:16.805Z,95456.58
2019-05-23T13:37:53.779Z,95453.97
2019-05-23T13:40:19.047Z,95450.65
2019-05-23T13:42:49.063Z,95443.44
2019-05-23T13:45:19.945Z,95437.13
2019-05-23T13:47:49.988Z,95438.67
2019-05-23T13:50:20.110Z,95439.95
2019-05-23T13:52:50.866Z,95432.77
2019-05-23T13:55:21.218Z,95427.67
2019-05-23T13:57:52.258Z,95428.17
2019-05-23T14:00:24.638Z,95429.80
2019-05-23T14:02:55.059Z,95427.03
2019-05-23T14:05:25.522Z,95422.00
2019-05-23T14:08:10.532Z,95427.60
2019-05-23T14:10:28.640Z,95426.36
2019-05-23T14:12:59.732Z,95427.16
2019-05-23T14:15:43.980Z,95428.16
2019-05-23T14:18:21.596Z,95423.25
2019-05-23T14:20:51.915Z,95418.19
2019-05-23T14:23:23.849Z,95421.22
2019-05-23T14:25:55.598Z,95412.52
2019-05-23T14:28:26.780Z,95413.38
2019-05-23T14:31:10.640Z,95410.21
2019-05-23T14:33:58.818Z,95410.40
2019-05-23T14:36:48.525Z,95412.83
2019-05-23T14:39:20.484Z,95404.80
2019-05-23T14:41:57.769Z,95407.10
2019-05-23T14:44:28.947Z,95406.05
2019-05-23T14:47:18.788Z,95405.30
2019-05-23T14:50:08.435Z,95411.63
2019-05-23T14:52:45.636Z,95405.22
2019-05-23T14:55:16.856Z,95403.57
2019-05-23T14:57:48.069Z,95398.70
2019-05-23T15:00:18.933Z,95396.33
2019-05-23T15:02:48.975Z,95398.73
2019-05-23T15:05:23.741Z,95394.80
2019-05-23T15:07:54.190Z,95391.17
2019-05-23T15:10:24.271Z,95393.30
2019-05-23T15:12:54.281Z,95394.34
2019-05-23T15:15:24.581Z,95394.41
2019-05-23T15:17:57.173Z,95396.07
2019-05-23T15:20:29.418Z,95393.97
2019-05-23T15:23:00.223Z,95389.06
2019-05-23T15:25:30.511Z,95389.70
2019-05-23T15:28:00.911Z,95387.45
2019-05-23T15:30:30.913Z,95382.95
2019-05-23T15:33:01.000Z,95390.48
2019-05-23T15:35:32.392Z,95390.50
2019-05-23T15:38:02.405Z,95378.90
2019-05-23T15:40:32.863Z,95378.11
2019-05-23T15:43:03.298Z,95380.23
2019-05-23T15:45:33.480Z,95375.00
2019-05-23T15:48:03.701Z,95379.80
2019-05-23T15:50:36.080Z,95375.17
2019-05-23T15:53:10.721Z,95378.70
2019-05-23T15:55:48.580Z,95377.38
2019-05-23T15:58:23.040Z,95377.47
2019-05-23T16:00:54.758Z,95374.98
2019-05-23T16:03:31.531Z,95375.67
2019-05-23T16:06:01.891Z,95369.38
2019-05-23T16:08:31.969Z,95370.05
2019-05-23T16:11:03.369Z,95364.12
2019-05-23T16:13:33.930Z,95362.63
2019-05-23T16:16:04.410Z,95370.02
2019-05-23T16:18:34.525Z,95369.84
2019-05-23T16:21:05.588Z,95363.45
2019-05-23T16:23:37.301Z,95361.77
2019-05-23T16:26:11.429Z,95357.84
2019-05-23T16:28:39.199Z,95361.37
2019-05-23T16:31:09.682Z,95354.22
2019-05-23T16:33:43.331Z,95362.94
2019-05-23T16:36:19.069Z,95358.77
2019-05-23T16:38:49.909Z,95351.42
2019-05-23T16:41:20.744Z,95354.03
2019-05-23T16:43:51.249Z,95355.17
2019-05-23T16:46:21.451Z,95356.47
2019-05-23T16:48:52.913Z,95351.79
2019-05-23T16:51:24.026Z,95352.92
2019-05-23T16:53:54.416Z,95356.69
2019-05-23T16:56:33.731Z,95353.84
2019-05-23T16:59:18.510Z,95348.94
2019-05-23T17:02:00.391Z,95355.09
2019-05-23T17:04:29.926Z,95353.25
2019-05-23T17:07:09.327Z,95355.52
2019-05-23T17:10:08.138Z,95350.50
2019-05-23T17:12:32.648Z,95352.14
2019-05-23T17:15:04.278Z,95356.12
2019-05-23T17:18:00.546Z,95352.87
2019-05-23T17:20:19.471Z,95356.03
2019-05-23T17:22:55.010Z,95351.44
2019-05-23T17:25:35.902Z,95357.47
2019-05-23T17:28:07.698Z,95360.84
2019-05-23T17:30:48.554Z,95354.69
2019-05-23T18:55:36.088Z,95375.69
2019-05-23T18:58:07.295Z,95379.47
2019-05-23T19:00:52.500Z,95378.93
2019-05-23T19:03:23.109Z,95384.05
2019-05-23T19:05:53.512Z,95381.86
2019-05-23T19:08:23.623Z,95383.78
2019-05-23T19:10:54.136Z,95387.28
2019-05-23T19:13:26.528Z,95387.35
2019-05-23T19:15:55.813Z,95387.95
2019-05-23T19:18:26.958Z,95392.31
2019-05-23T19:20:59.567Z,95394.03
2019-05-23T19:23:29.505Z,95399.02
2019-05-23T19:25:59.951Z,95399.27
2019-05-23T19:28:31.908Z,95400.30
2019-05-23T19:31:03.003Z,95393.42
2019-05-23T19:33:34.826Z,95400.70
2019-05-23T19:36:07.073Z,95400.09
2019-05-23T19:38:37.151Z,95405.41
2019-05-23T19:41:09.573Z,95403.82
2019-05-23T19:43:39.573Z,95402.20
2019-05-23T19:46:09.549Z,95397.97
2019-05-23T19:48:41.683Z,95402.74
2019-05-23T19:51:11.781Z,95398.70
2019-05-23T19:53:41.956Z,95398.05
2019-05-23T19:56:11.971Z,95404.95
2019-05-23T19:58:42.776Z,95402.83
2019-05-23T20:01:13.389Z,95398.75
2019-05-23T20:03:43.893Z,95402.02
2019-05-23T20:06:15.134Z,95394.95
2019-05-23T20:08:47.270Z,95399.24
2019-05-23T20:11:17.412Z,95397.45
2019-05-23T20:13:47.481Z,95395.80
2019-05-23T20:16:17.528Z,95397.27
2019-05-23T20:18:48.507Z,95401.41
2019-05-23T20:21:18.950Z,95399.11
2019-05-23T20:23:48.978Z,95401.24
2019-05-23T20:26:19.219Z,95402.70
2019-05-23T20:28:49.224Z,95399.09
2019-05-23T20:31:19.194Z,95405.29
2019-05-23T20:33:50.073Z,95405.29
2019-05-23T20:36:21.129Z,95398.56
2019-05-23T20:38:51.055Z,95399.69
2019-05-23T20:41:22.773Z,95395.69
2019-05-23T20:43:52.856Z,95391.59
2019-05-23T20:46:24.195Z,95393.88
2019-05-23T20:48:54.203Z,95395.50
2019-05-23T20:51:25.349Z,95392.36
2019-05-23T20:53:55.375Z,95387.09
2019-05-23T20:56:25.527Z,95384.45
2019-05-23T20:58:55.635Z,95389.54
2019-05-23T21:01:32.977Z,95382.98
2019-05-23T21:04:03.004Z,95380.84
2019-05-23T21:06:34.302Z,95379.50
2019-05-23T21:09:06.401Z,95383.26
2019-05-23T21:11:36.473Z,95382.74
2019-05-23T21:14:06.479Z,95381.22
2019-05-23T21:16:36.449Z,95377.77
2019-05-23T21:19:06.458Z,95380.08
2019-05-23T21:21:36.542Z,95382.66
2019-05-23T21:24:07.615Z,95379.52
2019-05-23T21:26:37.686Z,95382.92
2019-05-23T21:29:07.692Z,95381.22
2019-05-23T21:31:37.905Z,95389.03
2019-05-23T21:34:07.923Z,95387.38
2019-05-23T21:36:37.971Z,95394.56
2019-05-23T21:39:10.083Z,95384.70
2019-05-23T21:41:40.260Z,95387.78
2019-05-23T21:44:10.279Z,95385.42
2019-05-23T21:46:40.324Z,95385.06
2019-05-23T21:49:10.364Z,95381.09
2019-05-23T21:51:40.409Z,95378.45
2019-05-23T21:54:10.486Z,95380.89
2019-05-23T21:56:40.401Z,95377.08
2019-05-23T21:59:10.415Z,95379.35
2019-05-23T22:01:44.748Z,95384.88
2019-05-23T22:04:22.020Z,95392.48
2019-05-23T22:06:58.733Z,95381.34
2019-05-23T22:09:29.431Z,95381.63
2019-05-23T22:11:59.468Z,95377.05
2019-05-23T22:14:29.560Z,95374.19
2019-05-23T22:16:59.551Z,95373.28
2019-05-23T22:19:29.774Z,95370.95
2019-05-23T22:21:59.860Z,95368.16
2019-05-23T22:24:29.971Z,95367.09
2019-05-23T22:27:01.046Z,95365.16
2019-05-23T22:29:31.055Z,95359.42
2019-05-23T22:32:01.037Z,95364.95
2019-05-23T22:34:33.059Z,95357.55
2019-05-23T22:37:04.744Z,95367.80
2019-05-23T22:39:34.844Z,95360.12
2019-05-23T22:42:06.317Z,95359.92
2019-05-23T22:44:36.270Z,95359.84
2019-05-23T22:47:06.423Z,95361.73
2019-05-23T22:49:36.402Z,95358.98
2019-05-23T22:52:06.976Z,95352.16
2019-05-23T22:54:36.946Z,95350.50
2019-05-23T22:57:07.022Z,95353.41
2019-05-23T22:59:37.566Z,95352.73
2019-05-23T23:02:10.150Z,95355.30
2019-05-23T23:04:40.155Z,95351.05
2019-05-23T23:07:11.170Z,95356.19
2019-05-23T23:09:41.185Z,95349.27
2019-05-23T23:12:11.359Z,95348.06
2019-05-23T23:14:41.373Z,95340.98
2019-05-23T23:17:11.414Z,95342.77
2019-05-23T23:19:41.413Z,95342.36
2019-05-23T23:22:13.196Z,95335.15
2019-05-23T23:24:43.173Z,95339.33
2019-05-23T23:27:13.253Z,95337.47
2019-05-23T23:29:43.594Z,95339.58
2019-05-23T23:32:13.679Z,95334.77
2019-05-23T23:34:43.650Z,95331.83
2019-05-23T23:37:13.723Z,95332.30
2019-05-23T23:39:43.653Z,95331.48
2019-05-23T23:42:14.323Z,95333.73
2019-05-23T23:44:43.543Z,95331.48
2019-05-23T23:47:31.579Z,95333.55
2019-05-23T23:50:19.306Z,95329.48
2019-05-23T23:53:07.320Z,95333.49
2019-05-23T23:55:55.294Z,95325.43
2019-05-23T23:58:24.546Z,95326.30
